sensor_id;sensor_type;location;lat;lon;timestamp;temperature;humidity
43143;DHT22;28750;59.842;17.584;2023-08-30T00:02:11;14.70;99.90
43143;DHT22;28750;59.842;17.584;2023-08-30T00:04:38;14.70;99.90
43143;DHT22;28750;59.842;17.584;2023-08-30T00:07:05;14.70;99.90
43143;DHT22;28750;59.842;17.584;2023-08-30T00:09:32;14.70;99.90
43143;DHT22;28750;59.842;17.584;2023-08-30T00:12:02;14.70;99.90
43143;DHT22;28750;59.842;17.584;2023-08-30T00:14:29;14.70;99.90
43143;DHT22;28750;59.842;17.584;2023-08-30T00:16:57;14.70;99.90
43143;DHT22;28750;59.842;17.584;2023-08-30T00:19:24;14.80;99.90
43143;DHT22;28750;59.842;17.584;2023-08-30T00:21:52;14.80;99.90
43143;DHT22;28750;59.842;17.584;2023-08-30T00:24:19;14.80;99.90
43143;DHT22;28750;59.842;17.584;2023-08-30T00:26:46;14.70;99.90
43143;DHT22;28750;59.842;17.584;2023-08-30T00:29:13;14.70;99.90
43143;DHT22;28750;59.842;17.584;2023-08-30T00:31:40;14.60;99.90
43143;DHT22;28750;59.842;17.584;2023-08-30T00:34:07;14.50;99.90
43143;DHT22;28750;59.842;17.584;2023-08-30T00:36:35;14.50;99.90
43143;DHT22;28750;59.842;17.584;2023-08-30T00:39:02;14.50;99.90
43143;DHT22;28750;59.842;17.584;2023-08-30T00:41:30;14.50;99.90
43143;DHT22;28750;59.842;17.584;2023-08-30T00:43:57;14.50;99.90
43143;DHT22;28750;59.842;17.584;2023-08-30T00:46:24;14.40;99.90
43143;DHT22;28750;59.842;17.584;2023-08-30T00:48:51;14.40;99.90
43143;DHT22;28750;59.842;17.584;2023-08-30T00:51:19;14.40;99.90
43143;DHT22;28750;59.842;17.584;2023-08-30T00:53:47;14.30;99.90
43143;DHT22;28750;59.842;17.584;2023-08-30T00:56:15;14.30;99.90
43143;DHT22;28750;59.842;17.584;2023-08-30T00:58:42;14.40;99.90
43143;DHT22;28750;59.842;17.584;2023-08-30T01:01:09;14.40;99.90
43143;DHT22;28750;59.842;17.584;2023-08-30T01:03:37;14.40;99.90
43143;DHT22;28750;59.842;17.584;2023-08-30T01:06:04;14.40;99.90
43143;DHT22;28750;59.842;17.584;2023-08-30T01:08:31;14.40;99.90
43143;DHT22;28750;59.842;17.584;2023-08-30T01:14:05;14.50;99.90
43143;DHT22;28750;59.842;17.584;2023-08-30T01:16:33;14.50;99.90
43143;DHT22;28750;59.842;17.584;2023-08-30T01:19:11;14.40;99.90
43143;DHT22;28750;59.842;17.584;2023-08-30T01:21:58;14.40;99.90
43143;DHT22;28750;59.842;17.584;2023-08-30T01:27:28;14.30;99.90
43143;DHT22;28750;59.842;17.584;2023-08-30T01:29:57;14.40;99.90
43143;DHT22;28750;59.842;17.584;2023-08-30T01:32:25;14.40;99.90
43143;DHT22;28750;59.842;17.584;2023-08-30T01:34:55;14.40;99.90
43143;DHT22;28750;59.842;17.584;2023-08-30T01:37:22;14.30;99.90
43143;DHT22;28750;59.842;17.584;2023-08-30T01:39:52;14.20;99.90
43143;DHT22;28750;59.842;17.584;2023-08-30T01:42:20;14.30;99.90
43143;DHT22;28750;59.842;17.584;2023-08-30T01:44:49;14.30;99.90
43143;DHT22;28750;59.842;17.584;2023-08-30T01:47:17;14.30;99.90
43143;DHT22;28750;59.842;17.584;2023-08-30T01:49:45;14.30;99.90
43143;DHT22;28750;59.842;17.584;2023-08-30T01:52:13;14.30;99.90
43143;DHT22;28750;59.842;17.584;2023-08-30T01:54:41;14.30;99.90
43143;DHT22;28750;59.842;17.584;2023-08-30T01:57:09;14.30;99.90
43143;DHT22;28750;59.842;17.584;2023-08-30T01:59:36;14.20;99.90
43143;DHT22;28750;59.842;17.584;2023-08-30T02:02:03;14.10;99.90
43143;DHT22;28750;59.842;17.584;2023-08-30T02:04:31;14.10;99.90
43143;DHT22;28750;59.842;17.584;2023-08-30T02:07:08;14.20;99.90
43143;DHT22;28750;59.842;17.584;2023-08-30T02:09:42;14.20;99.90
43143;DHT22;28750;59.842;17.584;2023-08-30T02:12:15;14.20;99.90
43143;DHT22;28750;59.842;17.584;2023-08-30T02:14:46;14.20;99.90
43143;DHT22;28750;59.842;17.584;2023-08-30T02:17:15;14.10;99.90
43143;DHT22;28750;59.842;17.584;2023-08-30T02:19:45;14.10;99.90
43143;DHT22;28750;59.842;17.584;2023-08-30T02:22:14;14.10;99.90
43143;DHT22;28750;59.842;17.584;2023-08-30T02:24:41;14.10;99.90
43143;DHT22;28750;59.842;17.584;2023-08-30T02:27:08;14.10;99.90
43143;DHT22;28750;59.842;17.584;2023-08-30T02:29:35;14.20;99.90
43143;DHT22;28750;59.842;17.584;2023-08-30T02:32:03;14.20;99.90
43143;DHT22;28750;59.842;17.584;2023-08-30T02:34:30;14.20;99.90
43143;DHT22;28750;59.842;17.584;2023-08-30T02:36:58;14.30;99.90
43143;DHT22;28750;59.842;17.584;2023-08-30T02:39:25;14.20;99.90
43143;DHT22;28750;59.842;17.584;2023-08-30T02:41:52;14.20;99.90
43143;DHT22;28750;59.842;17.584;2023-08-30T02:44:19;14.20;99.90
43143;DHT22;28750;59.842;17.584;2023-08-30T02:46:46;14.30;99.90
43143;DHT22;28750;59.842;17.584;2023-08-30T02:49:13;14.30;99.90
43143;DHT22;28750;59.842;17.584;2023-08-30T02:51:40;14.40;99.90
43143;DHT22;28750;59.842;17.584;2023-08-30T02:54:07;14.30;99.90
43143;DHT22;28750;59.842;17.584;2023-08-30T02:56:34;14.20;99.90
43143;DHT22;28750;59.842;17.584;2023-08-30T02:59:01;14.20;99.90
43143;DHT22;28750;59.842;17.584;2023-08-30T03:01:29;14.30;99.90
43143;DHT22;28750;59.842;17.584;2023-08-30T03:03:56;14.20;99.90
43143;DHT22;28750;59.842;17.584;2023-08-30T03:06:23;14.20;99.90
43143;DHT22;28750;59.842;17.584;2023-08-30T03:08:50;14.20;99.90
43143;DHT22;28750;59.842;17.584;2023-08-30T03:11:17;14.20;99.90
43143;DHT22;28750;59.842;17.584;2023-08-30T03:13:44;14.20;99.90
43143;DHT22;28750;59.842;17.584;2023-08-30T03:18:39;14.00;99.90
43143;DHT22;28750;59.842;17.584;2023-08-30T03:21:07;14.00;99.90
43143;DHT22;28750;59.842;17.584;2023-08-30T03:23:35;14.00;99.90
43143;DHT22;28750;59.842;17.584;2023-08-30T03:26:12;14.10;99.90
43143;DHT22;28750;59.842;17.584;2023-08-30T03:28:40;14.10;99.90
43143;DHT22;28750;59.842;17.584;2023-08-30T03:31:17;14.10;99.90
43143;DHT22;28750;59.842;17.584;2023-08-30T03:33:45;14.10;99.90
43143;DHT22;28750;59.842;17.584;2023-08-30T03:36:15;14.20;99.90
43143;DHT22;28750;59.842;17.584;2023-08-30T03:38:43;14.20;99.90
43143;DHT22;28750;59.842;17.584;2023-08-30T03:41:11;14.20;99.90
43143;DHT22;28750;59.842;17.584;2023-08-30T03:43:38;14.20;99.90
43143;DHT22;28750;59.842;17.584;2023-08-30T03:46:06;14.20;99.90
43143;DHT22;28750;59.842;17.584;2023-08-30T03:48:34;14.20;99.90
43143;DHT22;28750;59.842;17.584;2023-08-30T03:51:01;14.20;99.90
43143;DHT22;28750;59.842;17.584;2023-08-30T03:53:29;14.20;99.90
43143;DHT22;28750;59.842;17.584;2023-08-30T03:55:56;14.20;99.90
43143;DHT22;28750;59.842;17.584;2023-08-30T03:58:25;14.20;99.90
43143;DHT22;28750;59.842;17.584;2023-08-30T04:00:52;14.30;99.90
43143;DHT22;28750;59.842;17.584;2023-08-30T04:03:19;14.30;99.90
43143;DHT22;28750;59.842;17.584;2023-08-30T04:05:46;14.30;99.90
43143;DHT22;28750;59.842;17.584;2023-08-30T04:08:13;14.20;99.90
43143;DHT22;28750;59.842;17.584;2023-08-30T04:10:41;14.10;99.90
43143;DHT22;28750;59.842;17.584;2023-08-30T04:13:09;14.20;99.90
43143;DHT22;28750;59.842;17.584;2023-08-30T04:15:37;14.10;99.90
43143;DHT22;28750;59.842;17.584;2023-08-30T04:18:06;14.20;99.90
43143;DHT22;28750;59.842;17.584;2023-08-30T04:20:34;14.20;99.90
43143;DHT22;28750;59.842;17.584;2023-08-30T04:23:01;14.20;99.90
43143;DHT22;28750;59.842;17.584;2023-08-30T04:25:30;14.10;99.90
43143;DHT22;28750;59.842;17.584;2023-08-30T04:27:57;14.20;99.90
43143;DHT22;28750;59.842;17.584;2023-08-30T04:30:24;14.20;99.90
43143;DHT22;28750;59.842;17.584;2023-08-30T04:32:51;14.20;99.90
43143;DHT22;28750;59.842;17.584;2023-08-30T04:35:18;14.20;99.90
43143;DHT22;28750;59.842;17.584;2023-08-30T04:37:46;14.10;99.90
43143;DHT22;28750;59.842;17.584;2023-08-30T04:40:14;14.10;99.90
43143;DHT22;28750;59.842;17.584;2023-08-30T04:42:41;14.00;99.90
43143;DHT22;28750;59.842;17.584;2023-08-30T04:45:09;14.10;99.90
43143;DHT22;28750;59.842;17.584;2023-08-30T04:47:36;14.10;99.90
43143;DHT22;28750;59.842;17.584;2023-08-30T04:50:04;14.10;99.90
43143;DHT22;28750;59.842;17.584;2023-08-30T04:52:31;14.20;99.90
43143;DHT22;28750;59.842;17.584;2023-08-30T04:54:58;14.20;99.90
43143;DHT22;28750;59.842;17.584;2023-08-30T04:57:25;14.20;99.90
43143;DHT22;28750;59.842;17.584;2023-08-30T04:59:53;14.30;99.90
43143;DHT22;28750;59.842;17.584;2023-08-30T05:02:20;14.20;99.90
43143;DHT22;28750;59.842;17.584;2023-08-30T05:04:47;14.30;99.90
43143;DHT22;28750;59.842;17.584;2023-08-30T05:07:14;14.20;99.90
43143;DHT22;28750;59.842;17.584;2023-08-30T05:09:41;14.10;99.90
43143;DHT22;28750;59.842;17.584;2023-08-30T05:12:08;14.20;99.90
43143;DHT22;28750;59.842;17.584;2023-08-30T05:14:36;14.30;99.90
43143;DHT22;28750;59.842;17.584;2023-08-30T05:17:03;14.40;99.90
43143;DHT22;28750;59.842;17.584;2023-08-30T05:19:30;14.40;99.90
43143;DHT22;28750;59.842;17.584;2023-08-30T05:21:57;14.40;99.90
43143;DHT22;28750;59.842;17.584;2023-08-30T05:24:24;14.40;99.90
43143;DHT22;28750;59.842;17.584;2023-08-30T05:26:52;14.40;99.90
43143;DHT22;28750;59.842;17.584;2023-08-30T05:29:19;14.40;99.90
43143;DHT22;28750;59.842;17.584;2023-08-30T05:31:46;14.40;99.90
43143;DHT22;28750;59.842;17.584;2023-08-30T05:34:13;14.50;99.90
43143;DHT22;28750;59.842;17.584;2023-08-30T05:36:40;14.50;99.90
43143;DHT22;28750;59.842;17.584;2023-08-30T05:39:07;14.60;99.90
43143;DHT22;28750;59.842;17.584;2023-08-30T05:41:34;14.60;99.90
43143;DHT22;28750;59.842;17.584;2023-08-30T05:44:02;14.60;99.90
43143;DHT22;28750;59.842;17.584;2023-08-30T05:46:29;14.60;99.90
43143;DHT22;28750;59.842;17.584;2023-08-30T05:48:56;14.60;99.90
43143;DHT22;28750;59.842;17.584;2023-08-30T05:51:23;14.60;99.90
43143;DHT22;28750;59.842;17.584;2023-08-30T05:53:50;14.60;99.90
43143;DHT22;28750;59.842;17.584;2023-08-30T05:56:17;14.70;99.90
43143;DHT22;28750;59.842;17.584;2023-08-30T05:58:44;14.70;99.90
43143;DHT22;28750;59.842;17.584;2023-08-30T06:01:12;14.80;99.90
43143;DHT22;28750;59.842;17.584;2023-08-30T06:03:39;14.90;99.90
43143;DHT22;28750;59.842;17.584;2023-08-30T06:06:06;14.80;99.90
43143;DHT22;28750;59.842;17.584;2023-08-30T06:08:33;14.90;99.90
43143;DHT22;28750;59.842;17.584;2023-08-30T06:11:00;14.90;99.90
43143;DHT22;28750;59.842;17.584;2023-08-30T06:13:27;15.00;99.90
43143;DHT22;28750;59.842;17.584;2023-08-30T06:15:54;15.00;99.90
43143;DHT22;28750;59.842;17.584;2023-08-30T06:18:21;15.00;99.90
43143;DHT22;28750;59.842;17.584;2023-08-30T06:20:49;15.00;99.90
43143;DHT22;28750;59.842;17.584;2023-08-30T06:23:18;14.90;99.90
43143;DHT22;28750;59.842;17.584;2023-08-30T06:25:56;14.90;99.90
43143;DHT22;28750;59.842;17.584;2023-08-30T06:28:24;14.90;99.90
43143;DHT22;28750;59.842;17.584;2023-08-30T06:30:51;14.80;99.90
43143;DHT22;28750;59.842;17.584;2023-08-30T06:33:18;14.90;99.90
43143;DHT22;28750;59.842;17.584;2023-08-30T06:35:48;14.80;99.90
43143;DHT22;28750;59.842;17.584;2023-08-30T06:38:16;14.90;99.90
43143;DHT22;28750;59.842;17.584;2023-08-30T06:40:44;14.80;99.90
43143;DHT22;28750;59.842;17.584;2023-08-30T06:43:12;14.80;99.90
43143;DHT22;28750;59.842;17.584;2023-08-30T06:45:41;14.80;99.90
43143;DHT22;28750;59.842;17.584;2023-08-30T06:48:08;14.80;99.90
43143;DHT22;28750;59.842;17.584;2023-08-30T06:50:35;14.80;99.90
43143;DHT22;28750;59.842;17.584;2023-08-30T06:53:03;14.80;99.90
43143;DHT22;28750;59.842;17.584;2023-08-30T06:55:30;14.80;99.90
43143;DHT22;28750;59.842;17.584;2023-08-30T06:57:59;14.90;99.90
43143;DHT22;28750;59.842;17.584;2023-08-30T07:00:26;14.90;99.90
43143;DHT22;28750;59.842;17.584;2023-08-30T07:02:53;14.90;99.90
43143;DHT22;28750;59.842;17.584;2023-08-30T07:05:21;15.00;99.90
43143;DHT22;28750;59.842;17.584;2023-08-30T07:07:48;15.20;99.90
43143;DHT22;28750;59.842;17.584;2023-08-30T07:10:16;15.20;99.90
43143;DHT22;28750;59.842;17.584;2023-08-30T07:12:43;15.30;99.90
43143;DHT22;28750;59.842;17.584;2023-08-30T07:15:10;15.40;99.90
43143;DHT22;28750;59.842;17.584;2023-08-30T07:17:38;15.40;99.90
43143;DHT22;28750;59.842;17.584;2023-08-30T07:20:08;15.50;99.90
43143;DHT22;28750;59.842;17.584;2023-08-30T07:22:35;15.50;99.90
43143;DHT22;28750;59.842;17.584;2023-08-30T07:25:02;15.60;99.90
43143;DHT22;28750;59.842;17.584;2023-08-30T07:27:29;15.60;99.90
43143;DHT22;28750;59.842;17.584;2023-08-30T07:29:56;15.60;99.90
43143;DHT22;28750;59.842;17.584;2023-08-30T07:32:23;15.80;99.90
43143;DHT22;28750;59.842;17.584;2023-08-30T07:34:50;15.90;99.90
43143;DHT22;28750;59.842;17.584;2023-08-30T07:37:22;16.20;99.90
43143;DHT22;28750;59.842;17.584;2023-08-30T07:39:51;16.70;99.90
43143;DHT22;28750;59.842;17.584;2023-08-30T07:42:18;16.70;99.90
43143;DHT22;28750;59.842;17.584;2023-08-30T07:44:45;16.70;99.90
43143;DHT22;28750;59.842;17.584;2023-08-30T07:47:12;16.60;99.90
43143;DHT22;28750;59.842;17.584;2023-08-30T07:49:40;16.60;99.90
43143;DHT22;28750;59.842;17.584;2023-08-30T07:52:08;16.70;99.90
43143;DHT22;28750;59.842;17.584;2023-08-30T07:54:37;16.80;99.90
43143;DHT22;28750;59.842;17.584;2023-08-30T07:57:04;16.70;99.90
43143;DHT22;28750;59.842;17.584;2023-08-30T07:59:38;16.50;1.00
43143;DHT22;28750;59.842;17.584;2023-08-30T08:02:06;16.30;1.00
43143;DHT22;28750;59.842;17.584;2023-08-30T08:04:34;16.30;1.00
43143;DHT22;28750;59.842;17.584;2023-08-30T08:07:02;16.50;22.00
43143;DHT22;28750;59.842;17.584;2023-08-30T08:09:30;16.80;99.90
43143;DHT22;28750;59.842;17.584;2023-08-30T08:11:57;16.50;92.30
43143;DHT22;28750;59.842;17.584;2023-08-30T08:14:25;16.50;99.90
43143;DHT22;28750;59.842;17.584;2023-08-30T08:16:52;16.70;99.90
43143;DHT22;28750;59.842;17.584;2023-08-30T08:19:19;16.90;99.90
43143;DHT22;28750;59.842;17.584;2023-08-30T08:21:47;17.00;99.90
43143;DHT22;28750;59.842;17.584;2023-08-30T08:24:15;17.10;99.90
43143;DHT22;28750;59.842;17.584;2023-08-30T08:26:42;17.00;99.90
43143;DHT22;28750;59.842;17.584;2023-08-30T08:29:09;17.10;99.90
43143;DHT22;28750;59.842;17.584;2023-08-30T08:31:36;17.20;99.90
43143;DHT22;28750;59.842;17.584;2023-08-30T08:34:11;17.10;99.90
43143;DHT22;28750;59.842;17.584;2023-08-30T08:36:40;17.30;99.90
43143;DHT22;28750;59.842;17.584;2023-08-30T08:39:07;17.20;99.90
43143;DHT22;28750;59.842;17.584;2023-08-30T08:41:43;17.40;99.90
43143;DHT22;28750;59.842;17.584;2023-08-30T08:44:12;17.40;99.90
43143;DHT22;28750;59.842;17.584;2023-08-30T08:46:41;17.40;99.90
43143;DHT22;28750;59.842;17.584;2023-08-30T08:49:13;17.30;1.00
43143;DHT22;28750;59.842;17.584;2023-08-30T08:51:41;17.10;1.00
43143;DHT22;28750;59.842;17.584;2023-08-30T08:54:09;17.30;97.20
43143;DHT22;28750;59.842;17.584;2023-08-30T08:56:37;17.50;99.90
43143;DHT22;28750;59.842;17.584;2023-08-30T08:59:05;17.40;1.00
43143;DHT22;28750;59.842;17.584;2023-08-30T09:01:36;17.60;1.00
43143;DHT22;28750;59.842;17.584;2023-08-30T09:04:09;17.70;1.00
43143;DHT22;28750;59.842;17.584;2023-08-30T09:06:38;17.80;1.00
43143;DHT22;28750;59.842;17.584;2023-08-30T09:09:07;17.90;1.00
43143;DHT22;28750;59.842;17.584;2023-08-30T09:11:35;18.00;1.00
43143;DHT22;28750;59.842;17.584;2023-08-30T09:14:03;17.70;90.90
43143;DHT22;28750;59.842;17.584;2023-08-30T09:16:30;17.90;99.90
43143;DHT22;28750;59.842;17.584;2023-08-30T09:19:02;18.20;99.90
43143;DHT22;28750;59.842;17.584;2023-08-30T09:21:30;18.20;99.90
43143;DHT22;28750;59.842;17.584;2023-08-30T09:23:58;18.20;99.90
43143;DHT22;28750;59.842;17.584;2023-08-30T09:26:27;18.10;1.00
43143;DHT22;28750;59.842;17.584;2023-08-30T09:28:55;18.20;1.00
43143;DHT22;28750;59.842;17.584;2023-08-30T09:31:22;18.50;24.50
43143;DHT22;28750;59.842;17.584;2023-08-30T09:33:57;18.40;1.00
43143;DHT22;28750;59.842;17.584;2023-08-30T09:36:36;18.50;1.00
43143;DHT22;28750;59.842;17.584;2023-08-30T09:39:05;18.50;1.00
43143;DHT22;28750;59.842;17.584;2023-08-30T09:41:32;18.50;99.90
43143;DHT22;28750;59.842;17.584;2023-08-30T09:44:05;18.50;99.90
43143;DHT22;28750;59.842;17.584;2023-08-30T09:49:10;18.70;99.90
43143;DHT22;28750;59.842;17.584;2023-08-30T09:51:41;18.80;99.90
43143;DHT22;28750;59.842;17.584;2023-08-30T09:54:16;19.00;99.90
43143;DHT22;28750;59.842;17.584;2023-08-30T09:56:44;18.70;1.00
43143;DHT22;28750;59.842;17.584;2023-08-30T09:59:12;19.40;99.90
43143;DHT22;28750;59.842;17.584;2023-08-30T10:01:40;20.00;99.90
43143;DHT22;28750;59.842;17.584;2023-08-30T10:04:09;19.80;99.90
43143;DHT22;28750;59.842;17.584;2023-08-30T10:06:39;19.90;99.90
43143;DHT22;28750;59.842;17.584;2023-08-30T10:09:08;19.50;87.10
43143;DHT22;28750;59.842;17.584;2023-08-30T10:11:37;19.80;99.90
43143;DHT22;28750;59.842;17.584;2023-08-30T10:14:05;19.80;99.90
43143;DHT22;28750;59.842;17.584;2023-08-30T10:16:44;19.60;1.00
43143;DHT22;28750;59.842;17.584;2023-08-30T10:19:26;19.50;1.00
43143;DHT22;28750;59.842;17.584;2023-08-30T10:22:03;19.20;99.90
43143;DHT22;28750;59.842;17.584;2023-08-30T10:24:37;19.10;22.30
43143;DHT22;28750;59.842;17.584;2023-08-30T10:27:08;18.80;99.90
43143;DHT22;28750;59.842;17.584;2023-08-30T10:29:36;18.60;99.90
43143;DHT22;28750;59.842;17.584;2023-08-30T10:32:05;18.80;1.00
43143;DHT22;28750;59.842;17.584;2023-08-30T10:34:36;19.00;8.20
43143;DHT22;28750;59.842;17.584;2023-08-30T10:37:06;19.10;99.90
43143;DHT22;28750;59.842;17.584;2023-08-30T10:39:41;19.70;99.90
43143;DHT22;28750;59.842;17.584;2023-08-30T10:42:10;20.30;99.90
43143;DHT22;28750;59.842;17.584;2023-08-30T10:47:24;19.90;98.20
43143;DHT22;28750;59.842;17.584;2023-08-30T10:49:59;19.60;58.60
43143;DHT22;28750;59.842;17.584;2023-08-30T10:52:27;20.00;25.70
43143;DHT22;28750;59.842;17.584;2023-08-30T10:55:08;20.60;1.00
43143;DHT22;28750;59.842;17.584;2023-08-30T10:57:37;21.40;99.90
43143;DHT22;28750;59.842;17.584;2023-08-30T11:00:09;21.50;99.90
43143;DHT22;28750;59.842;17.584;2023-08-30T11:02:37;21.30;99.90
43143;DHT22;28750;59.842;17.584;2023-08-30T11:05:09;21.50;99.90
43143;DHT22;28750;59.842;17.584;2023-08-30T11:07:36;20.80;21.60
43143;DHT22;28750;59.842;17.584;2023-08-30T11:10:07;20.60;99.90
43143;DHT22;28750;59.842;17.584;2023-08-30T11:12:34;20.50;99.90
43143;DHT22;28750;59.842;17.584;2023-08-30T11:15:02;20.30;99.90
43143;DHT22;28750;59.842;17.584;2023-08-30T11:17:29;20.50;99.90
43143;DHT22;28750;59.842;17.584;2023-08-30T11:20:07;21.40;1.00
43143;DHT22;28750;59.842;17.584;2023-08-30T11:22:40;21.60;99.90
43143;DHT22;28750;59.842;17.584;2023-08-30T11:25:09;22.20;99.90
43143;DHT22;28750;59.842;17.584;2023-08-30T11:27:37;22.40;99.90
43143;DHT22;28750;59.842;17.584;2023-08-30T11:30:09;22.70;99.90
43143;DHT22;28750;59.842;17.584;2023-08-30T11:32:38;23.30;46.10
43143;DHT22;28750;59.842;17.584;2023-08-30T11:35:06;23.50;10.30
43143;DHT22;28750;59.842;17.584;2023-08-30T11:37:34;23.80;99.90
43143;DHT22;28750;59.842;17.584;2023-08-30T11:40:03;23.40;1.00
43143;DHT22;28750;59.842;17.584;2023-08-30T11:42:31;22.80;1.00
43143;DHT22;28750;59.842;17.584;2023-08-30T11:44:59;22.40;99.90
43143;DHT22;28750;59.842;17.584;2023-08-30T11:47:26;21.80;46.40
43143;DHT22;28750;59.842;17.584;2023-08-30T11:49:56;21.80;99.90
43143;DHT22;28750;59.842;17.584;2023-08-30T11:52:24;21.50;99.90
43143;DHT22;28750;59.842;17.584;2023-08-30T11:54:52;21.00;1.00
43143;DHT22;28750;59.842;17.584;2023-08-30T11:57:19;20.80;99.90
43143;DHT22;28750;59.842;17.584;2023-08-30T11:59:46;20.60;99.90
43143;DHT22;28750;59.842;17.584;2023-08-30T12:02:16;20.20;99.90
43143;DHT22;28750;59.842;17.584;2023-08-30T12:04:45;20.10;1.00
43143;DHT22;28750;59.842;17.584;2023-08-30T12:07:30;20.20;99.90
43143;DHT22;28750;59.842;17.584;2023-08-30T12:10:08;20.40;99.90
43143;DHT22;28750;59.842;17.584;2023-08-30T12:12:36;20.70;49.00
43143;DHT22;28750;59.842;17.584;2023-08-30T12:15:13;20.70;99.90
43143;DHT22;28750;59.842;17.584;2023-08-30T12:17:41;20.80;99.90
43143;DHT22;28750;59.842;17.584;2023-08-30T12:20:18;20.90;99.90
43143;DHT22;28750;59.842;17.584;2023-08-30T12:22:49;21.00;99.90
43143;DHT22;28750;59.842;17.584;2023-08-30T12:25:18;20.90;99.90
43143;DHT22;28750;59.842;17.584;2023-08-30T12:27:45;20.60;84.00
43143;DHT22;28750;59.842;17.584;2023-08-30T12:30:14;20.40;99.90
43143;DHT22;28750;59.842;17.584;2023-08-30T12:32:45;20.30;1.00
43143;DHT22;28750;59.842;17.584;2023-08-30T12:35:12;20.60;99.90
43143;DHT22;28750;59.842;17.584;2023-08-30T12:37:39;20.70;99.90
43143;DHT22;28750;59.842;17.584;2023-08-30T12:40:07;21.20;99.90
43143;DHT22;28750;59.842;17.584;2023-08-30T12:42:35;22.00;99.90
43143;DHT22;28750;59.842;17.584;2023-08-30T12:45:02;22.20;99.90
43143;DHT22;28750;59.842;17.584;2023-08-30T12:47:29;22.10;99.90
43143;DHT22;28750;59.842;17.584;2023-08-30T12:49:56;22.10;99.90
43143;DHT22;28750;59.842;17.584;2023-08-30T12:52:24;22.00;99.90
43143;DHT22;28750;59.842;17.584;2023-08-30T12:54:51;21.80;99.90
43143;DHT22;28750;59.842;17.584;2023-08-30T12:57:19;21.60;1.00
43143;DHT22;28750;59.842;17.584;2023-08-30T12:59:46;21.70;1.00
43143;DHT22;28750;59.842;17.584;2023-08-30T13:02:13;21.80;99.90
43143;DHT22;28750;59.842;17.584;2023-08-30T13:04:40;20.80;99.90
43143;DHT22;28750;59.842;17.584;2023-08-30T13:07:08;20.30;35.40
43143;DHT22;28750;59.842;17.584;2023-08-30T13:09:35;20.00;99.90
43143;DHT22;28750;59.842;17.584;2023-08-30T13:12:02;20.20;99.90
43143;DHT22;28750;59.842;17.584;2023-08-30T13:14:30;20.00;99.90
43143;DHT22;28750;59.842;17.584;2023-08-30T13:16:57;19.80;19.50
43143;DHT22;28750;59.842;17.584;2023-08-30T13:19:24;20.40;99.90
43143;DHT22;28750;59.842;17.584;2023-08-30T13:21:51;21.80;95.30
43143;DHT22;28750;59.842;17.584;2023-08-30T13:24:18;22.70;99.90
43143;DHT22;28750;59.842;17.584;2023-08-30T13:26:46;22.40;99.90
43143;DHT22;28750;59.842;17.584;2023-08-30T13:29:17;21.50;99.90
43143;DHT22;28750;59.842;17.584;2023-08-30T13:31:45;21.10;1.00
43143;DHT22;28750;59.842;17.584;2023-08-30T13:34:12;20.90;3.30
43143;DHT22;28750;59.842;17.584;2023-08-30T13:36:39;20.90;99.90
43143;DHT22;28750;59.842;17.584;2023-08-30T13:39:06;20.80;99.90
43143;DHT22;28750;59.842;17.584;2023-08-30T13:41:33;20.70;99.90
43143;DHT22;28750;59.842;17.584;2023-08-30T13:44:01;20.70;99.90
43143;DHT22;28750;59.842;17.584;2023-08-30T13:46:30;20.90;99.90
43143;DHT22;28750;59.842;17.584;2023-08-30T13:48:57;20.90;99.90
43143;DHT22;28750;59.842;17.584;2023-08-30T13:51:26;21.10;11.00
43143;DHT22;28750;59.842;17.584;2023-08-30T13:53:53;21.10;25.10
43143;DHT22;28750;59.842;17.584;2023-08-30T13:56:20;20.70;84.20
43143;DHT22;28750;59.842;17.584;2023-08-30T13:58:47;20.60;99.90
43143;DHT22;28750;59.842;17.584;2023-08-30T14:01:15;20.70;1.00
43143;DHT22;28750;59.842;17.584;2023-08-30T14:03:43;20.60;94.70
43143;DHT22;28750;59.842;17.584;2023-08-30T14:06:13;20.50;1.00
43143;DHT22;28750;59.842;17.584;2023-08-30T14:08:42;20.50;99.90
43143;DHT22;28750;59.842;17.584;2023-08-30T14:11:10;20.70;99.90
43143;DHT22;28750;59.842;17.584;2023-08-30T14:13:39;20.50;80.90
43143;DHT22;28750;59.842;17.584;2023-08-30T14:16:09;20.50;99.90
43143;DHT22;28750;59.842;17.584;2023-08-30T14:18:38;20.50;99.90
43143;DHT22;28750;59.842;17.584;2023-08-30T14:21:07;21.10;99.90
43143;DHT22;28750;59.842;17.584;2023-08-30T14:23:36;21.80;99.90
43143;DHT22;28750;59.842;17.584;2023-08-30T14:26:04;21.40;1.00
43143;DHT22;28750;59.842;17.584;2023-08-30T14:28:36;22.00;99.90
43143;DHT22;28750;59.842;17.584;2023-08-30T14:31:08;21.90;1.00
43143;DHT22;28750;59.842;17.584;2023-08-30T14:33:36;20.90;99.90
43143;DHT22;28750;59.842;17.584;2023-08-30T14:36:08;20.60;1.00
43143;DHT22;28750;59.842;17.584;2023-08-30T14:38:37;20.20;99.90
43143;DHT22;28750;59.842;17.584;2023-08-30T14:41:08;20.00;99.90
43143;DHT22;28750;59.842;17.584;2023-08-30T14:43:38;19.80;99.90
43143;DHT22;28750;59.842;17.584;2023-08-30T14:46:10;19.50;99.90
43143;DHT22;28750;59.842;17.584;2023-08-30T14:48:41;19.20;1.00
43143;DHT22;28750;59.842;17.584;2023-08-30T14:51:08;19.10;99.90
43143;DHT22;28750;59.842;17.584;2023-08-30T14:53:36;19.20;99.90
43143;DHT22;28750;59.842;17.584;2023-08-30T14:56:05;19.00;99.90
43143;DHT22;28750;59.842;17.584;2023-08-30T14:58:36;19.00;99.90
43143;DHT22;28750;59.842;17.584;2023-08-30T15:01:09;19.00;1.00
43143;DHT22;28750;59.842;17.584;2023-08-30T15:03:38;18.90;99.90
43143;DHT22;28750;59.842;17.584;2023-08-30T15:06:08;18.90;99.90
43143;DHT22;28750;59.842;17.584;2023-08-30T15:08:37;18.70;99.90
43143;DHT22;28750;59.842;17.584;2023-08-30T15:11:06;18.70;99.90
43143;DHT22;28750;59.842;17.584;2023-08-30T15:13:36;18.70;99.90
43143;DHT22;28750;59.842;17.584;2023-08-30T15:16:04;18.70;99.90
43143;DHT22;28750;59.842;17.584;2023-08-30T15:18:31;18.50;99.90
43143;DHT22;28750;59.842;17.584;2023-08-30T15:20:58;18.50;99.90
43143;DHT22;28750;59.842;17.584;2023-08-30T15:23:28;18.70;99.90
43143;DHT22;28750;59.842;17.584;2023-08-30T15:25:56;18.70;99.90
43143;DHT22;28750;59.842;17.584;2023-08-30T15:28:23;18.40;1.00
43143;DHT22;28750;59.842;17.584;2023-08-30T15:30:50;18.30;98.20
43143;DHT22;28750;59.842;17.584;2023-08-30T15:33:18;18.30;99.90
43143;DHT22;28750;59.842;17.584;2023-08-30T15:35:45;18.10;99.90
43143;DHT22;28750;59.842;17.584;2023-08-30T15:38:12;18.10;1.00
43143;DHT22;28750;59.842;17.584;2023-08-30T15:40:39;18.10;99.90